KCSQ/CSQ METAR and TAF weather

Enter ICAO airport designator
Station Type Date Time Source
KCSQ METAR 2020/10/22 03:55 UTC NOAA

KCSQ 220355Z AUTO 06006KT 2 1/2SM -RA OVC002 07/07 A3004 RMK AO2 P0009


Station Type Date Time Source
KCSQ Decoded METAR 2020/10/22 03:55 UTC NOAA

Creston, IA, United States (KCSQ) 41-01N 094-22W
Oct 21, 2020 - 11:55 PM EDT / 2020.10.22 0355 UTC
Wind: from the ENE (060 degrees) at 7 MPH (6 KT):0
Visibility: 2 1/2 mile(s):0
Sky conditions: overcast
Weather: light rain
Precipitation last hour: 0.09 inches
Temperature: 44 F (7 C)
Dew Point: 44 F (7 C)
Relative Humidity: 100%
Pressure (altimeter): 30.04 in. Hg (1017 hPa)
ob: KCSQ 220355Z AUTO 06006KT 2 1/2SM -RA OVC002 07/07 A3004 RMK AO2 P0009
cycle: 4

Station Type Date Time Source
KCSQ TAF UTC NOAA

Error!

Example: see airport list